sensor_id;sensor_type;location;lat;lon;timestamp;temperature;humidity
55213;DHT22;41083;52.932;6.674;2022-10-24T00:02:16;14.50;99.90
55213;DHT22;41083;52.932;6.674;2022-10-24T00:04:42;14.50;99.90
55213;DHT22;41083;52.932;6.674;2022-10-24T00:07:08;14.50;99.90
55213;DHT22;41083;52.932;6.674;2022-10-24T00:09:35;14.50;99.90
55213;DHT22;41083;52.932;6.674;2022-10-24T00:12:02;14.50;99.90
55213;DHT22;41083;52.932;6.674;2022-10-24T00:14:28;14.50;99.90
55213;DHT22;41083;52.932;6.674;2022-10-24T00:16:54;14.50;99.90
55213;DHT22;41083;52.932;6.674;2022-10-24T00:19:20;14.50;99.90
55213;DHT22;41083;52.932;6.674;2022-10-24T00:21:47;14.40;99.90
55213;DHT22;41083;52.932;6.674;2022-10-24T00:24:13;14.40;99.90
55213;DHT22;41083;52.932;6.674;2022-10-24T00:26:38;14.50;99.90
55213;DHT22;41083;52.932;6.674;2022-10-24T00:29:04;14.40;99.90
55213;DHT22;41083;52.932;6.674;2022-10-24T00:31:30;14.40;99.90
55213;DHT22;41083;52.932;6.674;2022-10-24T00:33:56;14.50;99.90
55213;DHT22;41083;52.932;6.674;2022-10-24T00:36:22;14.50;99.90
55213;DHT22;41083;52.932;6.674;2022-10-24T00:38:49;14.40;99.90
55213;DHT22;41083;52.932;6.674;2022-10-24T00:43:46;14.40;99.90
55213;DHT22;41083;52.932;6.674;2022-10-24T00:46:12;14.40;99.90
55213;DHT22;41083;52.932;6.674;2022-10-24T00:51:27;14.40;99.90
55213;DHT22;41083;52.932;6.674;2022-10-24T00:54:07;14.40;99.90
55213;DHT22;41083;52.932;6.674;2022-10-24T00:56:46;14.50;99.90
55213;DHT22;41083;52.932;6.674;2022-10-24T00:59:14;14.50;99.90
55213;DHT22;41083;52.932;6.674;2022-10-24T01:01:41;14.40;99.90
55213;DHT22;41083;52.932;6.674;2022-10-24T01:04:11;14.50;99.90
55213;DHT22;41083;52.932;6.674;2022-10-24T01:06:44;14.50;99.90
55213;DHT22;41083;52.932;6.674;2022-10-24T01:09:26;14.50;99.90
55213;DHT22;41083;52.932;6.674;2022-10-24T01:14:55;14.50;99.90
55213;DHT22;41083;52.932;6.674;2022-10-24T01:17:42;14.50;99.90
55213;DHT22;41083;52.932;6.674;2022-10-24T01:28:24;14.60;99.90
55213;DHT22;41083;52.932;6.674;2022-10-24T01:30:56;14.60;99.90
55213;DHT22;41083;52.932;6.674;2022-10-24T01:33:33;14.70;99.90
55213;DHT22;41083;52.932;6.674;2022-10-24T01:36:15;14.70;99.90
55213;DHT22;41083;52.932;6.674;2022-10-24T01:38:45;14.70;99.90
55213;DHT22;41083;52.932;6.674;2022-10-24T01:41:15;14.60;99.90
55213;DHT22;41083;52.932;6.674;2022-10-24T01:44:05;14.70;99.90
55213;DHT22;41083;52.932;6.674;2022-10-24T01:46:40;14.70;99.90
55213;DHT22;41083;52.932;6.674;2022-10-24T01:49:16;14.80;99.90
55213;DHT22;41083;52.932;6.674;2022-10-24T01:51:43;14.80;99.90
55213;DHT22;41083;52.932;6.674;2022-10-24T01:54:10;14.70;99.90
55213;DHT22;41083;52.932;6.674;2022-10-24T01:56:36;14.70;99.90
55213;DHT22;41083;52.932;6.674;2022-10-24T02:04:29;14.70;99.90
55213;DHT22;41083;52.932;6.674;2022-10-24T02:06:59;14.70;99.90
55213;DHT22;41083;52.932;6.674;2022-10-24T02:09:27;14.70;99.90
55213;DHT22;41083;52.932;6.674;2022-10-24T02:11:56;14.70;99.90
55213;DHT22;41083;52.932;6.674;2022-10-24T02:14:43;14.70;99.90
55213;DHT22;41083;52.932;6.674;2022-10-24T02:17:09;14.70;99.90
55213;DHT22;41083;52.932;6.674;2022-10-24T02:19:36;14.70;99.90
55213;DHT22;41083;52.932;6.674;2022-10-24T02:25:17;14.80;99.90
55213;DHT22;41083;52.932;6.674;2022-10-24T02:28:10;14.80;99.90
55213;DHT22;41083;52.932;6.674;2022-10-24T02:30:51;14.80;99.90
55213;DHT22;41083;52.932;6.674;2022-10-24T02:33:19;14.80;99.90
55213;DHT22;41083;52.932;6.674;2022-10-24T02:35:46;14.80;99.90
55213;DHT22;41083;52.932;6.674;2022-10-24T02:38:33;14.80;99.90
55213;DHT22;41083;52.932;6.674;2022-10-24T02:41:03;14.80;99.90
55213;DHT22;41083;52.932;6.674;2022-10-24T02:43:30;14.80;99.90
55213;DHT22;41083;52.932;6.674;2022-10-24T02:45:57;14.70;99.90
55213;DHT22;41083;52.932;6.674;2022-10-24T02:48:27;14.80;99.90
55213;DHT22;41083;52.932;6.674;2022-10-24T02:50:53;14.80;99.90
55213;DHT22;41083;52.932;6.674;2022-10-24T02:53:22;14.70;99.90
55213;DHT22;41083;52.932;6.674;2022-10-24T02:55:49;14.70;99.90
55213;DHT22;41083;52.932;6.674;2022-10-24T02:58:14;14.70;99.90
55213;DHT22;41083;52.932;6.674;2022-10-24T03:00:40;14.70;99.90
55213;DHT22;41083;52.932;6.674;2022-10-24T03:03:06;14.70;99.90
55213;DHT22;41083;52.932;6.674;2022-10-24T03:05:31;14.70;99.90
55213;DHT22;41083;52.932;6.674;2022-10-24T03:07:57;14.80;99.90
55213;DHT22;41083;52.932;6.674;2022-10-24T03:10:23;14.70;99.90
55213;DHT22;41083;52.932;6.674;2022-10-24T03:12:48;14.70;99.90
55213;DHT22;41083;52.932;6.674;2022-10-24T03:15:15;14.70;99.90
55213;DHT22;41083;52.932;6.674;2022-10-24T03:17:40;14.70;99.90
55213;DHT22;41083;52.932;6.674;2022-10-24T03:20:06;14.70;99.90
55213;DHT22;41083;52.932;6.674;2022-10-24T03:22:32;14.70;99.90
55213;DHT22;41083;52.932;6.674;2022-10-24T03:24:58;14.70;99.90
55213;DHT22;41083;52.932;6.674;2022-10-24T03:27:27;14.70;99.90
55213;DHT22;41083;52.932;6.674;2022-10-24T03:29:53;14.70;99.90
55213;DHT22;41083;52.932;6.674;2022-10-24T03:32:19;14.70;99.90
55213;DHT22;41083;52.932;6.674;2022-10-24T03:34:44;14.70;99.90
55213;DHT22;41083;52.932;6.674;2022-10-24T03:37:10;14.70;99.90
55213;DHT22;41083;52.932;6.674;2022-10-24T03:39:36;14.70;99.90
55213;DHT22;41083;52.932;6.674;2022-10-24T03:42:01;14.70;99.90
55213;DHT22;41083;52.932;6.674;2022-10-24T03:44:27;14.70;99.90
55213;DHT22;41083;52.932;6.674;2022-10-24T03:46:52;14.70;99.90
55213;DHT22;41083;52.932;6.674;2022-10-24T03:49:18;14.70;99.90
55213;DHT22;41083;52.932;6.674;2022-10-24T03:51:43;14.70;99.90
55213;DHT22;41083;52.932;6.674;2022-10-24T03:54:09;14.70;99.90
55213;DHT22;41083;52.932;6.674;2022-10-24T03:56:36;14.70;99.90
55213;DHT22;41083;52.932;6.674;2022-10-24T03:59:01;14.70;99.90
55213;DHT22;41083;52.932;6.674;2022-10-24T04:01:27;14.70;99.90
55213;DHT22;41083;52.932;6.674;2022-10-24T04:03:53;14.70;99.90
55213;DHT22;41083;52.932;6.674;2022-10-24T04:06:18;14.70;99.90
55213;DHT22;41083;52.932;6.674;2022-10-24T04:08:44;14.70;99.90
55213;DHT22;41083;52.932;6.674;2022-10-24T04:11:10;14.60;99.90
55213;DHT22;41083;52.932;6.674;2022-10-24T04:13:36;14.60;99.90
55213;DHT22;41083;52.932;6.674;2022-10-24T04:16:01;14.60;99.90
55213;DHT22;41083;52.932;6.674;2022-10-24T04:18:27;14.60;99.90
55213;DHT22;41083;52.932;6.674;2022-10-24T04:20:53;14.60;99.90
55213;DHT22;41083;52.932;6.674;2022-10-24T04:23:18;14.60;99.90
55213;DHT22;41083;52.932;6.674;2022-10-24T04:25:45;14.50;99.90
55213;DHT22;41083;52.932;6.674;2022-10-24T04:28:10;14.50;99.90
55213;DHT22;41083;52.932;6.674;2022-10-24T04:30:36;14.50;99.90
55213;DHT22;41083;52.932;6.674;2022-10-24T04:33:01;14.50;99.90
55213;DHT22;41083;52.932;6.674;2022-10-24T04:35:27;14.50;99.90
55213;DHT22;41083;52.932;6.674;2022-10-24T04:37:53;14.40;99.90
55213;DHT22;41083;52.932;6.674;2022-10-24T04:40:18;14.50;99.90
55213;DHT22;41083;52.932;6.674;2022-10-24T04:42:44;14.40;99.90
55213;DHT22;41083;52.932;6.674;2022-10-24T04:45:10;14.40;99.90
55213;DHT22;41083;52.932;6.674;2022-10-24T04:47:35;14.40;99.90
55213;DHT22;41083;52.932;6.674;2022-10-24T04:50:02;14.30;99.90
55213;DHT22;41083;52.932;6.674;2022-10-24T04:52:28;14.30;99.90
55213;DHT22;41083;52.932;6.674;2022-10-24T04:54:53;14.30;99.90
55213;DHT22;41083;52.932;6.674;2022-10-24T04:57:19;14.30;99.90
55213;DHT22;41083;52.932;6.674;2022-10-24T04:59:44;14.30;99.90
55213;DHT22;41083;52.932;6.674;2022-10-24T05:02:10;14.30;99.90
55213;DHT22;41083;52.932;6.674;2022-10-24T05:04:36;14.30;99.90
55213;DHT22;41083;52.932;6.674;2022-10-24T05:07:01;14.30;99.90
55213;DHT22;41083;52.932;6.674;2022-10-24T05:09:27;14.30;99.90
55213;DHT22;41083;52.932;6.674;2022-10-24T05:11:54;14.30;99.90
55213;DHT22;41083;52.932;6.674;2022-10-24T05:14:21;14.30;99.90
55213;DHT22;41083;52.932;6.674;2022-10-24T05:16:46;14.30;99.90
55213;DHT22;41083;52.932;6.674;2022-10-24T05:19:14;14.30;99.90
55213;DHT22;41083;52.932;6.674;2022-10-24T05:21:40;14.30;99.90
55213;DHT22;41083;52.932;6.674;2022-10-24T05:24:06;14.30;99.90
55213;DHT22;41083;52.932;6.674;2022-10-24T05:26:31;14.30;99.90
55213;DHT22;41083;52.932;6.674;2022-10-24T05:28:57;14.30;99.90
55213;DHT22;41083;52.932;6.674;2022-10-24T05:31:22;14.30;99.90
55213;DHT22;41083;52.932;6.674;2022-10-24T05:33:48;14.30;99.90
55213;DHT22;41083;52.932;6.674;2022-10-24T05:36:13;14.30;99.90
55213;DHT22;41083;52.932;6.674;2022-10-24T05:38:39;14.30;99.90
55213;DHT22;41083;52.932;6.674;2022-10-24T05:41:05;14.30;99.90
55213;DHT22;41083;52.932;6.674;2022-10-24T05:43:30;14.30;99.90
55213;DHT22;41083;52.932;6.674;2022-10-24T05:45:56;14.30;99.90
55213;DHT22;41083;52.932;6.674;2022-10-24T05:48:22;14.30;99.90
55213;DHT22;41083;52.932;6.674;2022-10-24T05:50:47;14.30;99.90
55213;DHT22;41083;52.932;6.674;2022-10-24T05:53:13;14.20;99.90
55213;DHT22;41083;52.932;6.674;2022-10-24T05:55:38;14.20;99.90
55213;DHT22;41083;52.932;6.674;2022-10-24T05:58:04;14.20;99.90
55213;DHT22;41083;52.932;6.674;2022-10-24T06:00:30;14.20;99.90
55213;DHT22;41083;52.932;6.674;2022-10-24T06:02:59;14.20;99.90
55213;DHT22;41083;52.932;6.674;2022-10-24T06:05:24;14.30;99.90
55213;DHT22;41083;52.932;6.674;2022-10-24T06:07:51;14.30;99.90
55213;DHT22;41083;52.932;6.674;2022-10-24T06:10:17;14.30;99.90
55213;DHT22;41083;52.932;6.674;2022-10-24T06:12:42;14.30;99.90
55213;DHT22;41083;52.932;6.674;2022-10-24T06:15:10;14.30;99.90
55213;DHT22;41083;52.932;6.674;2022-10-24T06:17:36;14.30;99.90
55213;DHT22;41083;52.932;6.674;2022-10-24T06:20:02;14.40;99.90
55213;DHT22;41083;52.932;6.674;2022-10-24T06:22:27;14.40;99.90
55213;DHT22;41083;52.932;6.674;2022-10-24T06:24:54;14.40;99.90
55213;DHT22;41083;52.932;6.674;2022-10-24T06:27:20;14.40;99.90
55213;DHT22;41083;52.932;6.674;2022-10-24T06:29:46;14.40;99.90
55213;DHT22;41083;52.932;6.674;2022-10-24T06:32:12;14.40;99.90
55213;DHT22;41083;52.932;6.674;2022-10-24T06:34:37;14.50;99.90
55213;DHT22;41083;52.932;6.674;2022-10-24T06:37:03;14.40;99.90
55213;DHT22;41083;52.932;6.674;2022-10-24T06:39:29;14.40;99.90
55213;DHT22;41083;52.932;6.674;2022-10-24T06:41:55;14.50;99.90
55213;DHT22;41083;52.932;6.674;2022-10-24T06:44:20;14.40;99.90
55213;DHT22;41083;52.932;6.674;2022-10-24T06:46:46;14.40;99.90
55213;DHT22;41083;52.932;6.674;2022-10-24T06:49:12;14.40;99.90
55213;DHT22;41083;52.932;6.674;2022-10-24T06:51:38;14.40;99.90
55213;DHT22;41083;52.932;6.674;2022-10-24T06:54:04;14.40;99.90
55213;DHT22;41083;52.932;6.674;2022-10-24T06:56:29;14.40;99.90
55213;DHT22;41083;52.932;6.674;2022-10-24T06:58:55;14.40;99.90
55213;DHT22;41083;52.932;6.674;2022-10-24T07:01:23;14.40;99.90
55213;DHT22;41083;52.932;6.674;2022-10-24T07:03:49;14.40;99.90
55213;DHT22;41083;52.932;6.674;2022-10-24T07:08:42;14.30;99.90
55213;DHT22;41083;52.932;6.674;2022-10-24T07:11:08;14.40;99.90
55213;DHT22;41083;52.932;6.674;2022-10-24T07:13:33;14.40;99.90
55213;DHT22;41083;52.932;6.674;2022-10-24T07:15:59;14.40;99.90
55213;DHT22;41083;52.932;6.674;2022-10-24T07:18:25;14.50;99.90
55213;DHT22;41083;52.932;6.674;2022-10-24T07:20:50;14.40;99.90
55213;DHT22;41083;52.932;6.674;2022-10-24T07:23:17;14.50;99.90
55213;DHT22;41083;52.932;6.674;2022-10-24T07:25:43;14.60;99.90
55213;DHT22;41083;52.932;6.674;2022-10-24T07:28:09;14.60;99.90
55213;DHT22;41083;52.932;6.674;2022-10-24T07:30:38;14.60;99.90
55213;DHT22;41083;52.932;6.674;2022-10-24T07:33:04;14.70;99.90
55213;DHT22;41083;52.932;6.674;2022-10-24T07:35:30;14.70;99.90
55213;DHT22;41083;52.932;6.674;2022-10-24T07:37:56;14.70;99.90
55213;DHT22;41083;52.932;6.674;2022-10-24T07:40:22;14.70;99.90
55213;DHT22;41083;52.932;6.674;2022-10-24T07:42:47;14.70;99.90
55213;DHT22;41083;52.932;6.674;2022-10-24T07:45:13;14.70;99.90
55213;DHT22;41083;52.932;6.674;2022-10-24T07:47:39;14.70;99.90
55213;DHT22;41083;52.932;6.674;2022-10-24T07:50:05;14.70;99.90
55213;DHT22;41083;52.932;6.674;2022-10-24T07:52:31;14.70;99.90
55213;DHT22;41083;52.932;6.674;2022-10-24T07:54:57;14.70;99.90
55213;DHT22;41083;52.932;6.674;2022-10-24T07:57:23;14.70;99.90
55213;DHT22;41083;52.932;6.674;2022-10-24T07:59:49;14.70;99.90
55213;DHT22;41083;52.932;6.674;2022-10-24T08:02:15;14.70;99.90
55213;DHT22;41083;52.932;6.674;2022-10-24T08:04:41;14.70;99.90
55213;DHT22;41083;52.932;6.674;2022-10-24T08:07:08;14.70;99.90
55213;DHT22;41083;52.932;6.674;2022-10-24T08:09:45;14.80;99.90
55213;DHT22;41083;52.932;6.674;2022-10-24T08:12:11;14.90;99.90
55213;DHT22;41083;52.932;6.674;2022-10-24T08:14:38;14.80;99.90
55213;DHT22;41083;52.932;6.674;2022-10-24T08:17:04;14.90;99.90
55213;DHT22;41083;52.932;6.674;2022-10-24T08:19:30;14.90;99.90
55213;DHT22;41083;52.932;6.674;2022-10-24T08:21:56;14.90;99.90
55213;DHT22;41083;52.932;6.674;2022-10-24T08:24:21;15.00;99.90
55213;DHT22;41083;52.932;6.674;2022-10-24T08:26:47;15.00;99.90
55213;DHT22;41083;52.932;6.674;2022-10-24T08:29:13;15.10;99.90
55213;DHT22;41083;52.932;6.674;2022-10-24T08:31:48;15.10;99.90
55213;DHT22;41083;52.932;6.674;2022-10-24T08:34:14;15.20;99.90
55213;DHT22;41083;52.932;6.674;2022-10-24T08:36:41;15.20;99.90
55213;DHT22;41083;52.932;6.674;2022-10-24T08:39:07;15.30;99.90
55213;DHT22;41083;52.932;6.674;2022-10-24T08:41:41;15.30;99.90
55213;DHT22;41083;52.932;6.674;2022-10-24T08:44:19;15.30;99.90
55213;DHT22;41083;52.932;6.674;2022-10-24T08:50:02;15.40;99.90
55213;DHT22;41083;52.932;6.674;2022-10-24T08:58:14;15.50;99.90
55213;DHT22;41083;52.932;6.674;2022-10-24T09:00:45;15.50;99.90
55213;DHT22;41083;52.932;6.674;2022-10-24T09:06:15;15.60;99.90
55213;DHT22;41083;52.932;6.674;2022-10-24T09:11:30;15.70;99.90
55213;DHT22;41083;52.932;6.674;2022-10-24T09:14:06;15.70;99.90
55213;DHT22;41083;52.932;6.674;2022-10-24T09:16:36;15.80;99.90
55213;DHT22;41083;52.932;6.674;2022-10-24T09:19:03;15.80;99.90
55213;DHT22;41083;52.932;6.674;2022-10-24T09:21:28;15.80;99.90
55213;DHT22;41083;52.932;6.674;2022-10-24T09:23:54;15.80;99.90
55213;DHT22;41083;52.932;6.674;2022-10-24T09:26:26;15.80;99.90
55213;DHT22;41083;52.932;6.674;2022-10-24T09:28:53;15.80;99.90
55213;DHT22;41083;52.932;6.674;2022-10-24T09:31:22;15.90;99.90
55213;DHT22;41083;52.932;6.674;2022-10-24T09:33:49;15.80;99.90
55213;DHT22;41083;52.932;6.674;2022-10-24T09:36:19;15.90;99.90
55213;DHT22;41083;52.932;6.674;2022-10-24T09:38:45;15.90;99.90
55213;DHT22;41083;52.932;6.674;2022-10-24T09:41:17;15.90;99.90
55213;DHT22;41083;52.932;6.674;2022-10-24T09:46:19;15.90;99.90
55213;DHT22;41083;52.932;6.674;2022-10-24T09:49:16;15.90;99.90
55213;DHT22;41083;52.932;6.674;2022-10-24T09:52:03;15.90;99.90
55213;DHT22;41083;52.932;6.674;2022-10-24T09:54:31;15.90;99.90
55213;DHT22;41083;52.932;6.674;2022-10-24T09:57:19;15.90;99.90
55213;DHT22;41083;52.932;6.674;2022-10-24T10:00:00;16.00;99.90
55213;DHT22;41083;52.932;6.674;2022-10-24T10:02:27;16.00;99.90
55213;DHT22;41083;52.932;6.674;2022-10-24T10:07:32;16.10;99.90
55213;DHT22;41083;52.932;6.674;2022-10-24T10:21:04;16.40;99.90
55213;DHT22;41083;52.932;6.674;2022-10-24T10:23:45;16.30;99.90
55213;DHT22;41083;52.932;6.674;2022-10-24T10:26:17;16.30;99.90
55213;DHT22;41083;52.932;6.674;2022-10-24T10:31:20;16.40;99.90
55213;DHT22;41083;52.932;6.674;2022-10-24T10:36:42;16.50;99.90
55213;DHT22;41083;52.932;6.674;2022-10-24T10:39:23;16.40;99.90
55213;DHT22;41083;52.932;6.674;2022-10-24T10:42:11;16.40;99.90
55213;DHT22;41083;52.932;6.674;2022-10-24T10:50:27;16.30;99.90
55213;DHT22;41083;52.932;6.674;2022-10-24T10:53:04;16.30;99.90
55213;DHT22;41083;52.932;6.674;2022-10-24T10:55:50;16.20;99.90
55213;DHT22;41083;52.932;6.674;2022-10-24T10:58:24;16.30;99.90
55213;DHT22;41083;52.932;6.674;2022-10-24T11:01:25;16.30;99.90
55213;DHT22;41083;52.932;6.674;2022-10-24T11:07:15;16.20;99.90
55213;DHT22;41083;52.932;6.674;2022-10-24T11:09:49;16.30;99.90
55213;DHT22;41083;52.932;6.674;2022-10-24T11:12:26;16.30;99.90
55213;DHT22;41083;52.932;6.674;2022-10-24T11:15:03;16.30;99.90
55213;DHT22;41083;52.932;6.674;2022-10-24T11:22:57;16.30;99.90
55213;DHT22;41083;52.932;6.674;2022-10-24T11:25:37;16.40;99.90
55213;DHT22;41083;52.932;6.674;2022-10-24T11:28:30;16.40;99.90
55213;DHT22;41083;52.932;6.674;2022-10-24T11:31:07;16.50;99.90
55213;DHT22;41083;52.932;6.674;2022-10-24T11:33:48;16.50;99.90
55213;DHT22;41083;52.932;6.674;2022-10-24T11:39:38;16.50;99.90
55213;DHT22;41083;52.932;6.674;2022-10-24T11:42:41;16.40;99.90
55213;DHT22;41083;52.932;6.674;2022-10-24T11:45:13;16.50;99.90
55213;DHT22;41083;52.932;6.674;2022-10-24T11:52:51;16.60;99.90
55213;DHT22;41083;52.932;6.674;2022-10-24T11:55:23;16.60;99.90
55213;DHT22;41083;52.932;6.674;2022-10-24T11:57:53;16.80;99.90
55213;DHT22;41083;52.932;6.674;2022-10-24T12:00:31;16.80;99.90
55213;DHT22;41083;52.932;6.674;2022-10-24T12:06:02;16.70;99.90
55213;DHT22;41083;52.932;6.674;2022-10-24T12:08:47;16.70;99.90
55213;DHT22;41083;52.932;6.674;2022-10-24T12:11:23;16.70;99.90
55213;DHT22;41083;52.932;6.674;2022-10-24T12:17:27;16.60;99.90
55213;DHT22;41083;52.932;6.674;2022-10-24T12:19:55;16.60;99.90
55213;DHT22;41083;52.932;6.674;2022-10-24T12:22:32;16.60;99.90
55213;DHT22;41083;52.932;6.674;2022-10-24T12:25:29;16.60;99.90
55213;DHT22;41083;52.932;6.674;2022-10-24T12:28:27;16.50;99.90
55213;DHT22;41083;52.932;6.674;2022-10-24T12:33:35;16.50;99.90
55213;DHT22;41083;52.932;6.674;2022-10-24T12:36:01;16.50;99.90
55213;DHT22;41083;52.932;6.674;2022-10-24T12:40:58;16.40;99.90
55213;DHT22;41083;52.932;6.674;2022-10-24T12:43:35;16.40;99.90
55213;DHT22;41083;52.932;6.674;2022-10-24T12:51:59;16.50;99.90
55213;DHT22;41083;52.932;6.674;2022-10-24T12:54:38;16.40;99.90
55213;DHT22;41083;52.932;6.674;2022-10-24T12:59:44;16.40;99.90
55213;DHT22;41083;52.932;6.674;2022-10-24T13:20:44;16.10;99.90
55213;DHT22;41083;52.932;6.674;2022-10-24T13:23:24;16.10;99.90
55213;DHT22;41083;52.932;6.674;2022-10-24T13:25:54;16.00;99.90
55213;DHT22;41083;52.932;6.674;2022-10-24T13:32:15;15.90;99.90
55213;DHT22;41083;52.932;6.674;2022-10-24T13:34:13;15.90;99.90
55213;DHT22;41083;52.932;6.674;2022-10-24T13:36:39;15.90;99.90
55213;DHT22;41083;52.932;6.674;2022-10-24T13:39:11;15.80;99.90
55213;DHT22;41083;52.932;6.674;2022-10-24T13:41:46;15.80;99.90
55213;DHT22;41083;52.932;6.674;2022-10-24T13:44:29;15.80;99.90
55213;DHT22;41083;52.932;6.674;2022-10-24T13:55:01;15.70;99.90
55213;DHT22;41083;52.932;6.674;2022-10-24T13:57:46;15.60;99.90
55213;DHT22;41083;52.932;6.674;2022-10-24T14:00:23;15.60;99.90
55213;DHT22;41083;52.932;6.674;2022-10-24T14:02:49;15.60;99.90
55213;DHT22;41083;52.932;6.674;2022-10-24T14:05:19;15.60;99.90
55213;DHT22;41083;52.932;6.674;2022-10-24T14:07:48;15.60;99.90
55213;DHT22;41083;52.932;6.674;2022-10-24T14:10:14;15.60;99.90
55213;DHT22;41083;52.932;6.674;2022-10-24T14:12:42;15.60;99.90
55213;DHT22;41083;52.932;6.674;2022-10-24T14:15:18;15.70;99.90
55213;DHT22;41083;52.932;6.674;2022-10-24T14:17:56;15.70;99.90
55213;DHT22;41083;52.932;6.674;2022-10-24T14:20:28;15.70;99.90
55213;DHT22;41083;52.932;6.674;2022-10-24T14:22:55;15.70;99.90
55213;DHT22;41083;52.932;6.674;2022-10-24T14:27:52;15.60;99.90
55213;DHT22;41083;52.932;6.674;2022-10-24T14:30:20;15.60;99.90
55213;DHT22;41083;52.932;6.674;2022-10-24T14:32:47;15.50;99.90
55213;DHT22;41083;52.932;6.674;2022-10-24T14:35:13;15.50;99.90
55213;DHT22;41083;52.932;6.674;2022-10-24T14:37:40;15.50;99.90
55213;DHT22;41083;52.932;6.674;2022-10-24T14:40:15;15.40;99.90
55213;DHT22;41083;52.932;6.674;2022-10-24T14:42:45;15.40;99.90
55213;DHT22;41083;52.932;6.674;2022-10-24T14:45:29;15.40;99.90
55213;DHT22;41083;52.932;6.674;2022-10-24T14:47:57;15.40;99.90
55213;DHT22;41083;52.932;6.674;2022-10-24T14:50:35;15.40;99.90
55213;DHT22;41083;52.932;6.674;2022-10-24T14:53:01;15.40;99.90
55213;DHT22;41083;52.932;6.674;2022-10-24T14:55:27;15.40;99.90
55213;DHT22;41083;52.932;6.674;2022-10-24T14:57:53;15.30;99.90
55213;DHT22;41083;52.932;6.674;2022-10-24T15:00:21;15.30;99.90
55213;DHT22;41083;52.932;6.674;2022-10-24T15:02:48;15.30;99.90
55213;DHT22;41083;52.932;6.674;2022-10-24T15:07:45;15.30;99.90
55213;DHT22;41083;52.932;6.674;2022-10-24T15:12:38;15.40;99.90
55213;DHT22;41083;52.932;6.674;2022-10-24T15:15:33;15.30;99.90
55213;DHT22;41083;52.932;6.674;2022-10-24T15:18:29;15.30;99.90
55213;DHT22;41083;52.932;6.674;2022-10-24T15:21:04;15.30;99.90
55213;DHT22;41083;52.932;6.674;2022-10-24T15:23:33;15.30;99.90
55213;DHT22;41083;52.932;6.674;2022-10-24T15:29:04;15.20;99.90
55213;DHT22;41083;52.932;6.674;2022-10-24T15:31:35;15.20;99.90
55213;DHT22;41083;52.932;6.674;2022-10-24T15:34:00;15.20;99.90
55213;DHT22;41083;52.932;6.674;2022-10-24T15:36:29;15.20;99.90
55213;DHT22;41083;52.932;6.674;2022-10-24T15:39:01;15.10;99.90
55213;DHT22;41083;52.932;6.674;2022-10-24T15:41:28;15.10;99.90
55213;DHT22;41083;52.932;6.674;2022-10-24T15:43:55;15.10;99.90
55213;DHT22;41083;52.932;6.674;2022-10-24T15:46:20;15.00;99.90
55213;DHT22;41083;52.932;6.674;2022-10-24T15:48:46;15.00;99.90
55213;DHT22;41083;52.932;6.674;2022-10-24T15:51:18;15.00;99.90
55213;DHT22;41083;52.932;6.674;2022-10-24T15:53:44;14.90;99.90
55213;DHT22;41083;52.932;6.674;2022-10-24T15:56:11;14.90;99.90
55213;DHT22;41083;52.932;6.674;2022-10-24T15:58:38;14.80;99.90
55213;DHT22;41083;52.932;6.674;2022-10-24T16:01:03;14.80;99.90
55213;DHT22;41083;52.932;6.674;2022-10-24T16:03:31;14.80;99.90
55213;DHT22;41083;52.932;6.674;2022-10-24T16:05:58;14.70;99.90
55213;DHT22;41083;52.932;6.674;2022-10-24T16:08:24;14.70;99.90
55213;DHT22;41083;52.932;6.674;2022-10-24T16:10:52;14.70;99.90
55213;DHT22;41083;52.932;6.674;2022-10-24T16:13:19;14.60;99.90
55213;DHT22;41083;52.932;6.674;2022-10-24T16:15:46;14.60;99.90
55213;DHT22;41083;52.932;6.674;2022-10-24T16:18:12;14.60;99.90
55213;DHT22;41083;52.932;6.674;2022-10-24T16:20:39;14.50;99.90
55213;DHT22;41083;52.932;6.674;2022-10-24T16:23:06;14.50;99.90
55213;DHT22;41083;52.932;6.674;2022-10-24T16:25:35;14.40;99.90
55213;DHT22;41083;52.932;6.674;2022-10-24T16:28:02;14.40;99.90
55213;DHT22;41083;52.932;6.674;2022-10-24T16:30:29;14.40;99.90
55213;DHT22;41083;52.932;6.674;2022-10-24T16:32:55;14.40;99.90
55213;DHT22;41083;52.932;6.674;2022-10-24T16:35:24;14.30;99.90
55213;DHT22;41083;52.932;6.674;2022-10-24T16:37:51;14.30;99.90
55213;DHT22;41083;52.932;6.674;2022-10-24T16:40:17;14.20;99.90
55213;DHT22;41083;52.932;6.674;2022-10-24T16:42:43;14.20;99.90
55213;DHT22;41083;52.932;6.674;2022-10-24T16:45:09;14.20;99.90
55213;DHT22;41083;52.932;6.674;2022-10-24T16:47:35;14.20;99.90
55213;DHT22;41083;52.932;6.674;2022-10-24T16:50:01;14.20;99.90
55213;DHT22;41083;52.932;6.674;2022-10-24T16:52:27;14.20;99.90
55213;DHT22;41083;52.932;6.674;2022-10-24T16:54:53;14.20;99.90
55213;DHT22;41083;52.932;6.674;2022-10-24T16:57:20;14.20;99.90
55213;DHT22;41083;52.932;6.674;2022-10-24T16:59:46;14.20;99.90
55213;DHT22;41083;52.932;6.674;2022-10-24T17:02:15;14.20;99.90
55213;DHT22;41083;52.932;6.674;2022-10-24T17:04:40;14.30;99.90
55213;DHT22;41083;52.932;6.674;2022-10-24T17:07:08;14.30;99.90
55213;DHT22;41083;52.932;6.674;2022-10-24T17:09:34;14.30;99.90
55213;DHT22;41083;52.932;6.674;2022-10-24T17:11:59;14.30;99.90
55213;DHT22;41083;52.932;6.674;2022-10-24T17:14:26;14.20;99.90
55213;DHT22;41083;52.932;6.674;2022-10-24T17:16:51;14.20;99.90
55213;DHT22;41083;52.932;6.674;2022-10-24T17:19:17;14.20;99.90
55213;DHT22;41083;52.932;6.674;2022-10-24T17:21:45;14.20;99.90
55213;DHT22;41083;52.932;6.674;2022-10-24T17:24:12;14.20;99.90
55213;DHT22;41083;52.932;6.674;2022-10-24T17:26:39;14.10;99.90
55213;DHT22;41083;52.932;6.674;2022-10-24T17:29:04;14.10;99.90
55213;DHT22;41083;52.932;6.674;2022-10-24T17:31:30;14.10;99.90
55213;DHT22;41083;52.932;6.674;2022-10-24T17:33:56;14.00;99.90
55213;DHT22;41083;52.932;6.674;2022-10-24T17:36:29;14.00;99.90
55213;DHT22;41083;52.932;6.674;2022-10-24T17:39:08;14.00;99.90
55213;DHT22;41083;52.932;6.674;2022-10-24T17:41:36;14.00;99.90
55213;DHT22;41083;52.932;6.674;2022-10-24T17:44:05;13.90;99.90
55213;DHT22;41083;52.932;6.674;2022-10-24T17:46:31;13.90;99.90
55213;DHT22;41083;52.932;6.674;2022-10-24T17:48:56;13.90;99.90
55213;DHT22;41083;52.932;6.674;2022-10-24T17:51:25;13.90;99.90
55213;DHT22;41083;52.932;6.674;2022-10-24T17:53:51;13.90;99.90
55213;DHT22;41083;52.932;6.674;2022-10-24T17:56:17;13.90;99.90
55213;DHT22;41083;52.932;6.674;2022-10-24T17:58:43;13.90;99.90
55213;DHT22;41083;52.932;6.674;2022-10-24T18:01:10;13.90;99.90
55213;DHT22;41083;52.932;6.674;2022-10-24T18:03:35;14.00;99.90
55213;DHT22;41083;52.932;6.674;2022-10-24T18:06:05;13.90;99.90
55213;DHT22;41083;52.932;6.674;2022-10-24T18:08:32;13.90;99.90
55213;DHT22;41083;52.932;6.674;2022-10-24T18:11:04;13.90;99.90